Etusivu
METAR-TAF:

METAR-TAF

Lentoasemat :

Los Alamos, New Mexico, Yhdysvallat

Leveyspiiri: 35-53N, Pituuspiiri: 106-17W, korkeus merenpinnasta: 2179 m

Tämänhetkinen sää

Tämä raportti tehtiin 39 minuuttia sitten, kello 06.15 UTC
Tuuli 6 kn eri suunnista
Lämpötila 23°C
Kosteus 29%
Ilmanpaine 1031 hPa
Näkyvyys: 16.1 km
selkeää

METAR: KLAM 140615Z AUTO VRB06KT 10SM CLR 23/04 A3046 RMK AO2 T02320038 $

Aika: 00:54 (06:54 UTC)


TAF: puuttuu

Säähavainnot ja -ennusteet yli 4000 lentoasemalta (METAR- ja TAF-raportit).

Käytössä olevat sääasemat on merkitty karttaan keltaisilla ja punaisilla pisteillä.

Aseta hiiri pisteen päälle nähdäksesi sääaseman nimen.

Klikkaa sitten nähdäksesi säähavainnot ja -ennusteet.

Kartan vaihtaminen: klikkaa mustalla rastilla varustettuja vihreitä pisteitä, niin voit zoomata sisään; viivalla varustettua vihreää pistettä, niin voit zoomata ulos tai vihreitä nuolia, niin pääset viereisille kartoille.


METAR-TAF: